LFOB/BVA METAR and TAF weather

Enter ICAO airport designator
Station Type Date Time Source
LFOB METAR 2021/09/28 04:30 UTC NOAA

LFOB 280430Z AUTO 08003KT CAVOK 07/06 Q1023 NOSIG


Station Type Date Time Source
LFOB Decoded METAR 2021/09/28 04:30 UTC NOAA

Beauvais, France (LFOB) 49-28N 002-07E 111M
Sep 28, 2021 - 12:30 AM EDT / 2021.09.28 0430 UTC
Wind: from the E (080 degrees) at 3 MPH (3 KT):0
Visibility: greater than 7 mile(s):0
Temperature: 44 F (7 C)
Dew Point: 42 F (6 C)
Relative Humidity: 93%
Pressure (altimeter): 30.21 in. Hg (1023 hPa)
ob: LFOB 280430Z AUTO 08003KT CAVOK 07/06 Q1023 NOSIG
cycle: 4

Station Type Date Time Source
LFOB TAF 2021/09/27 18:21 UTC NOAA

TAF TAF LFOB 271700Z 2718/2818 27012KT 9999 SCT040
BECMG 2718/2721 20006KT

Example: see airport list